Terminal Aerodrome Forecast
Issued by NWS Columbia, SC

Home | Current Version | Previous Version | Text Only | Print | Product List | Glossary On
Versions: 1 2 3 4 5 6 7 8 9 10 11 12 13 14 15 16 17 18 19 20 21 22 23 24 25 26 27 28 29 30 31 32
000
FTUS42 KCAE 191100
TAFCAE
TAF
KCAE 191140Z 1912/2012 12005KT 3SM -RA BR OVC003
      TEMPO 1912/1915 1 1/2SM SHRA BR
     FM191500 14010KT 4SM SHRA OVC008
     FM191800 16012G18KT P6SM VCSH BKN015 OVC100
      TEMPO 1920/1923 SHRA
     FM200300 21008KT P6SM OVC007=

USA.gov is the U.S. government's official web portal to all federal, state and local government web resources and services.